My Meet Scores
Audrey Dugan, IGI Gymnastics - MyMeetScores.com
Top100 | Top Teams | Upcoming Meets | Completed Meets | Latest | Add Scores | Help| Support | Bookmark and Share

Audrey Dugan, IGI Gymnastics
Personal Bests
LevelVault BarsBeamFloorAA
39.5009.375 9.4259.65037.600
48.7508.600 9.4009.30035.400
59.0009.000 9.2509.07536.100
Meet Scores
Date Meet Team Session Level Division Vault Bars Beam Floor AA
2019-03-22 Illinois Gymnastics State Championships IGI Gymnastics 2 5 JR B 8.950 25 8.825 17 9.250 5 9.075 18T 36.100 14
2019-02-15 Presidential Classic IGI Gymnastics B12 5 L5_Grp1 8.875 8 9.000 8 9.250 2 8.400 15 35.525 8
2019-02-08 IGI Chicago Style 2019 IGI Gymnastics 8 5 212 Lakeshore L5 A 8.925 8 8.950 8 8.725 14 8.600 19 35.200 13
2019-01-25 King Arthur Invitational IGI Gymnastics 13 5 JR B 8.700 10 7.850 10 8.775 10 8.675 8 34.000 10
2019-01-11 St Jude Benefit Meet IGI Gymnastics 9A 5 Jr A 9.000 7T 8.200 12 8.350 12 9.050 7T 34.600 11
2018-12-07 St. Nick Invite 2018 IGI Gymnastics 1 5 JrA 8.700 14 8.175 17 9.150 6 8.250 16T 34.275 13
2018-03-08 Level 4 & 5 State Infinity Gymnastics Academy All 4 Ch D 8.600 12 7.500 28 9.100 11T 8.450 23 33.650 20T
2018-02-23 Kinetic Classic Infinity Gymnastics Academy 7 4 Younger 8.050 60T 7.850 82 9.400 14T 9.300 17T 34.600 49
2018-02-02 Chris Waller's Heart Of A Champion Invitational Infinity Gymnastics Academy 12H 4 Jr A 8.750 7 7.800 11 9.100 3 8.450 10 34.100 9
2018-01-18 Circle Of Stars Gymnastics Invitational Infinity Gymnastics Academy C3 4 Jr A 8.625 9 8.600 14 9.375 2 8.800 5T 35.400 6
2018-01-12 St Jude Benefit Meet Infinity Gymnastics Academy 3A 4 JrB 8.275 11 8.100 16 9.250 7 8.825 10 34.450 12
2017-12-14 2017 Women's Hawaiian Pineapple Classic Infinity Gymnastics Academy 1A 4 Ages8U 8.400 4T 7.500 13 9.225 3 9.100 3 34.225 5
2017-11-10 Illinois NAWGJ Judges Cup 2017 Infinity Gymnastics Academy G3 4 All Ages 7.900 53T 8.025 49 9.000 13T 8.300 38T 33.225 39
2017-03-30 2017 Illinois Level 3 & 5 State Infinity Gymnastics Academy All 3 Ch E 9.500 9T 9.375 10T 9.425 3T 9.300 9T 37.600 7T
2017-03-10 Lucky Invitational Infinity Gymnastics Academy B02 3 Jr A 9.200 4T 9.300 5 9.175 2 9.650 1 37.325 2
2017-02-24 Houston National Invitational - Ocean View Infinity Gymnastics Academy O03 3 Jr B 9.500 2 9.275 5 9.175 1 9.500 2T 37.450 2
2017-02-10 IGI Chicago Style Gymnastics Meet Infinity Gymnastics Academy 232L 3 JrA 9.250 8 9.125 5 8.750 13 9.150 5 36.275 6
2017-01-28 Wisconsin Dells Gymnastics Vacation Classic - USAG Infinity Gymnastics Academy B6 3 Children 9.100 5 8.850 5T 9.275 1 9.550 1 36.775 1
2017-01-13 St Jude Benefit Meet Infinity Gymnastics Academy 9A 3 Jr A 9.100 6T 9.300 3 8.450 4T 9.425 2 36.275 3
2016-12-15 2016 Hawaiian Pineapple Sanction Infinity Gymnastics Academy 5B 3 Age 8 9.300 3T 9.150 2 8.850 7T 9.350 2 36.650 1
2016-11-11 2016 Illinois Judges Cup Infinity Gymnastics Academy B6 3 9 and Unde 9.200 5T 9.200 1T 9.400 1 9.050 4 36.850 1
2016-02-19 Midwest Open Womens 2016 Infinity Gymnastics Academy 1A 3 6-7 9.200 10 8.300 12 8.650 6 8.625 10 34.775 11
2016-02-12 IGI Chicago Style Gymnastics Meet Infinity Gymnastics Academy 231 3 JrA 8.825 15 8.050 17 8.700 10 8.700 11 34.275 15
2016-01-15 2016 Bravo Classic Infinity Gymnastics Academy 13A 3 6-7yrs 8.700 14 7.500 17 8.525 7 0.000 17 24.725 17
Get your scores on
a t-shirt, pin, or hoodie

Order by December 13

www.lazysuits.com